sensor_id;sensor_type;location;lat;lon;timestamp;temperature;humidity
55329;DHT22;41205;44.264;19.884;2023-06-22T00:27:37;589.60;2432.00
55329;DHT22;41205;44.264;19.884;2023-06-22T00:30:03;589.50;2432.00
55329;DHT22;41205;44.264;19.884;2023-06-22T00:32:29;589.50;2432.00
55329;DHT22;41205;44.264;19.884;2023-06-22T00:34:55;589.50;2432.00
55329;DHT22;41205;44.264;19.884;2023-06-22T00:37:20;589.40;2432.00
55329;DHT22;41205;44.264;19.884;2023-06-22T00:39:51;589.40;2432.00
55329;DHT22;41205;44.264;19.884;2023-06-22T00:42:17;589.40;2432.00
55329;DHT22;41205;44.264;19.884;2023-06-22T00:44:43;589.40;2432.00
55329;DHT22;41205;44.264;19.884;2023-06-22T00:47:13;589.30;2432.00
55329;DHT22;41205;44.264;19.884;2023-06-22T00:49:40;589.30;2432.00
55329;DHT22;41205;44.264;19.884;2023-06-22T00:52:07;589.10;2432.00
55329;DHT22;41205;44.264;19.884;2023-06-22T00:54:37;589.30;2432.00
55329;DHT22;41205;44.264;19.884;2023-06-22T00:57:04;589.20;2432.00
55329;DHT22;41205;44.264;19.884;2023-06-22T00:59:30;589.20;2432.00
55329;DHT22;41205;44.264;19.884;2023-06-22T01:01:58;589.20;2432.00
55329;DHT22;41205;44.264;19.884;2023-06-22T01:04:26;589.20;2432.00
55329;DHT22;41205;44.264;19.884;2023-06-22T01:07:20;589.20;2432.00
55329;DHT22;41205;44.264;19.884;2023-06-22T01:12:42;589.20;2432.00
55329;DHT22;41205;44.264;19.884;2023-06-22T01:16:07;589.20;2432.00
55329;DHT22;41205;44.264;19.884;2023-06-22T01:18:09;589.10;2432.00
55329;DHT22;41205;44.264;19.884;2023-06-22T01:20:38;589.00;2432.00
55329;DHT22;41205;44.264;19.884;2023-06-22T01:23:33;588.90;2432.00
55329;DHT22;41205;44.264;19.884;2023-06-22T01:28:48;588.90;2432.00
55329;DHT22;41205;44.264;19.884;2023-06-22T01:31:17;589.00;2432.00
55329;DHT22;41205;44.264;19.884;2023-06-22T01:33:45;589.00;2432.00
55329;DHT22;41205;44.264;19.884;2023-06-22T01:36:13;588.90;2432.00
55329;DHT22;41205;44.264;19.884;2023-06-22T01:38:39;588.90;2432.00
55329;DHT22;41205;44.264;19.884;2023-06-22T01:41:06;588.90;2432.00
55329;DHT22;41205;44.264;19.884;2023-06-22T01:43:32;589.00;2432.00
55329;DHT22;41205;44.264;19.884;2023-06-22T01:46:01;589.00;2432.00
55329;DHT22;41205;44.264;19.884;2023-06-22T01:48:27;589.00;2432.00
55329;DHT22;41205;44.264;19.884;2023-06-22T01:50:54;589.00;2432.00
55329;DHT22;41205;44.264;19.884;2023-06-22T01:53:24;589.00;2432.00
55329;DHT22;41205;44.264;19.884;2023-06-22T01:55:49;589.00;2432.00
55329;DHT22;41205;44.264;19.884;2023-06-22T01:58:16;589.00;2432.00
55329;DHT22;41205;44.264;19.884;2023-06-22T02:00:53;589.00;2432.00
55329;DHT22;41205;44.264;19.884;2023-06-22T02:03:29;589.00;2432.00
55329;DHT22;41205;44.264;19.884;2023-06-22T02:06:01;589.00;2432.00
55329;DHT22;41205;44.264;19.884;2023-06-22T02:08:37;588.90;2432.00
55329;DHT22;41205;44.264;19.884;2023-06-22T02:11:03;588.90;2432.00
55329;DHT22;41205;44.264;19.884;2023-06-22T02:13:30;588.80;2432.00
55329;DHT22;41205;44.264;19.884;2023-06-22T02:15:57;588.80;2432.00
55329;DHT22;41205;44.264;19.884;2023-06-22T02:18:23;588.80;2432.00
55329;DHT22;41205;44.264;19.884;2023-06-22T02:20:48;588.80;2432.00
55329;DHT22;41205;44.264;19.884;2023-06-22T02:23:14;588.80;2432.00
55329;DHT22;41205;44.264;19.884;2023-06-22T02:25:40;564.10;2432.00
55329;DHT22;41205;44.264;19.884;2023-06-22T02:28:05;564.10;2432.00
55329;DHT22;41205;44.264;19.884;2023-06-22T02:30:31;564.10;2432.00
55329;DHT22;41205;44.264;19.884;2023-06-22T02:32:57;564.10;2432.00
55329;DHT22;41205;44.264;19.884;2023-06-22T02:35:27;564.10;2432.00
55329;DHT22;41205;44.264;19.884;2023-06-22T02:37:59;564.10;2432.00
55329;DHT22;41205;44.264;19.884;2023-06-22T02:40:26;564.10;2432.00
55329;DHT22;41205;44.264;19.884;2023-06-22T02:42:54;564.10;2432.00
55329;DHT22;41205;44.264;19.884;2023-06-22T02:45:20;564.10;2432.00
55329;DHT22;41205;44.264;19.884;2023-06-22T02:47:46;564.00;2432.00
55329;DHT22;41205;44.264;19.884;2023-06-22T02:50:13;564.10;2432.00
55329;DHT22;41205;44.264;19.884;2023-06-22T02:52:39;564.00;2432.00
55329;DHT22;41205;44.264;19.884;2023-06-22T02:55:05;564.00;2432.00
55329;DHT22;41205;44.264;19.884;2023-06-22T02:57:32;564.00;2432.00
55329;DHT22;41205;44.264;19.884;2023-06-22T02:59:59;564.00;2432.00
55329;DHT22;41205;44.264;19.884;2023-06-22T03:02:25;564.10;2432.00
55329;DHT22;41205;44.264;19.884;2023-06-22T03:04:52;564.10;2432.00
55329;DHT22;41205;44.264;19.884;2023-06-22T03:07:19;564.10;2432.00
55329;DHT22;41205;44.264;19.884;2023-06-22T03:09:45;564.10;2432.00
55329;DHT22;41205;44.264;19.884;2023-06-22T03:12:11;564.10;2432.00
55329;DHT22;41205;44.264;19.884;2023-06-22T03:14:36;588.80;2432.00
55329;DHT22;41205;44.264;19.884;2023-06-22T03:17:04;588.80;2432.00
55329;DHT22;41205;44.264;19.884;2023-06-22T03:19:30;588.80;2432.00
55329;DHT22;41205;44.264;19.884;2023-06-22T03:22:00;588.80;2432.00
55329;DHT22;41205;44.264;19.884;2023-06-22T03:24:26;588.90;2432.00
55329;DHT22;41205;44.264;19.884;2023-06-22T03:26:55;588.90;2432.00
55329;DHT22;41205;44.264;19.884;2023-06-22T03:29:20;588.90;2432.00
55329;DHT22;41205;44.264;19.884;2023-06-22T03:31:46;589.00;2432.00
55329;DHT22;41205;44.264;19.884;2023-06-22T03:34:12;589.00;2432.00
55329;DHT22;41205;44.264;19.884;2023-06-22T03:36:37;589.00;2432.00
55329;DHT22;41205;44.264;19.884;2023-06-22T03:39:03;589.10;2432.00
55329;DHT22;41205;44.264;19.884;2023-06-22T03:41:29;589.20;2432.00
55329;DHT22;41205;44.264;19.884;2023-06-22T03:43:54;589.20;2432.00
55329;DHT22;41205;44.264;19.884;2023-06-22T03:46:20;589.30;2432.00
55329;DHT22;41205;44.264;19.884;2023-06-22T03:48:46;589.30;2432.00
55329;DHT22;41205;44.264;19.884;2023-06-22T03:51:11;589.20;2432.00
55329;DHT22;41205;44.264;19.884;2023-06-22T03:53:37;589.20;2432.00
55329;DHT22;41205;44.264;19.884;2023-06-22T03:56:03;589.30;2432.00
55329;DHT22;41205;44.264;19.884;2023-06-22T03:58:29;589.40;2432.00
55329;DHT22;41205;44.264;19.884;2023-06-22T04:00:58;589.50;2432.00
55329;DHT22;41205;44.264;19.884;2023-06-22T04:03:25;589.60;2432.00
55329;DHT22;41205;44.264;19.884;2023-06-22T04:05:51;589.70;2432.00
55329;DHT22;41205;44.264;19.884;2023-06-22T04:08:17;589.70;2432.00
55329;DHT22;41205;44.264;19.884;2023-06-22T04:10:43;614.40;2432.00
55329;DHT22;41205;44.264;19.884;2023-06-22T04:13:09;614.50;2432.00
55329;DHT22;41205;44.264;19.884;2023-06-22T04:15:35;614.60;2432.00
55329;DHT22;41205;44.264;19.884;2023-06-22T04:18:00;614.60;2432.00
55329;DHT22;41205;44.264;19.884;2023-06-22T04:20:26;614.80;2432.00
55329;DHT22;41205;44.264;19.884;2023-06-22T04:22:54;614.90;2432.00
55329;DHT22;41205;44.264;19.884;2023-06-22T04:25:21;615.00;2432.00
55329;DHT22;41205;44.264;19.884;2023-06-22T04:27:47;615.00;2432.00
55329;DHT22;41205;44.264;19.884;2023-06-22T04:30:13;640.00;2432.00
55329;DHT22;41205;44.264;19.884;2023-06-22T04:32:42;640.40;2432.00
55329;DHT22;41205;44.264;19.884;2023-06-22T04:35:08;665.60;2432.00
55329;DHT22;41205;44.264;19.884;2023-06-22T04:37:34;666.20;2432.00
55329;DHT22;41205;44.264;19.884;2023-06-22T04:40:00;691.40;2432.00
55329;DHT22;41205;44.264;19.884;2023-06-22T04:42:28;691.60;2432.00
55329;DHT22;41205;44.264;19.884;2023-06-22T04:44:54;691.80;2432.00
55329;DHT22;41205;44.264;19.884;2023-06-22T04:47:20;691.80;2432.00
55329;DHT22;41205;44.264;19.884;2023-06-22T04:49:46;692.10;2432.00
55329;DHT22;41205;44.264;19.884;2023-06-22T04:52:13;717.00;2432.00
55329;DHT22;41205;44.264;19.884;2023-06-22T04:54:40;717.50;2432.00
55329;DHT22;41205;44.264;19.884;2023-06-22T04:57:12;742.60;2432.00
55329;DHT22;41205;44.264;19.884;2023-06-22T04:59:39;743.30;2380.80
55329;DHT22;41205;44.264;19.884;2023-06-22T05:02:07;768.70;2278.40
55329;DHT22;41205;44.264;19.884;2023-06-22T05:04:33;794.00;2201.60
55329;DHT22;41205;44.264;19.884;2023-06-22T05:07:01;819.30;2099.20
55329;DHT22;41205;44.264;19.884;2023-06-22T05:09:27;820.10;2022.40
55329;DHT22;41205;44.264;19.884;2023-06-22T05:11:53;845.40;1945.60
55329;DHT22;41205;44.264;19.884;2023-06-22T05:16:46;870.40;1920.00
55329;DHT22;41205;44.264;19.884;2023-06-22T05:19:12;921.80;1766.40
55329;DHT22;41205;44.264;19.884;2023-06-22T05:21:38;947.40;1689.60
55329;DHT22;41205;44.264;19.884;2023-06-22T05:24:04;973.00;1638.40
55329;DHT22;41205;44.264;19.884;2023-06-22T05:26:31;973.20;1612.80
55329;DHT22;41205;44.264;19.884;2023-06-22T05:28:58;973.70;1561.60
55329;DHT22;41205;44.264;19.884;2023-06-22T05:31:24;998.60;1561.60
55329;DHT22;41205;44.264;19.884;2023-06-22T05:33:52;999.10;1536.00
55329;DHT22;41205;44.264;19.884;2023-06-22T05:36:18;1024.60;1484.80
55329;DHT22;41205;44.264;19.884;2023-06-22T05:38:47;1050.20;1433.60
55329;DHT22;41205;44.264;19.884;2023-06-22T05:41:13;1075.40;1408.00
55329;DHT22;41205;44.264;19.884;2023-06-22T05:46:06;1076.10;1356.80
55329;DHT22;41205;44.264;19.884;2023-06-22T05:48:32;1101.60;1331.20
55329;DHT22;41205;44.264;19.884;2023-06-22T05:50:58;1126.70;1305.60
55329;DHT22;41205;44.264;19.884;2023-06-22T05:53:24;1126.80;1331.20
55329;DHT22;41205;44.264;19.884;2023-06-22T05:55:49;1127.10;1305.60
55329;DHT22;41205;44.264;19.884;2023-06-22T05:58:15;1152.00;1280.00
55329;DHT22;41205;44.264;19.884;2023-06-22T06:00:41;1152.00;1280.00
55329;DHT22;41205;44.264;19.884;2023-06-22T06:05:34;1152.70;1254.40
55329;DHT22;41205;44.264;19.884;2023-06-22T06:08:01;1178.10;1228.80
55329;DHT22;41205;44.264;19.884;2023-06-22T06:10:28;1178.50;1203.20
55329;DHT22;41205;44.264;19.884;2023-06-22T06:12:55;1178.00;1203.20
55329;DHT22;41205;44.264;19.884;2023-06-22T06:15:21;1177.70;1228.80
55329;DHT22;41205;44.264;19.884;2023-06-22T06:17:52;1152.20;1254.40
55329;DHT22;41205;44.264;19.884;2023-06-22T06:20:25;1177.60;1228.80
55329;DHT22;41205;44.264;19.884;2023-06-22T06:22:51;1178.00;1203.20
55329;DHT22;41205;44.264;19.884;2023-06-22T06:25:17;1203.30;1203.20
55329;DHT22;41205;44.264;19.884;2023-06-22T06:27:49;1203.90;1177.60
55329;DHT22;41205;44.264;19.884;2023-06-22T06:30:17;1229.30;1177.60
55329;DHT22;41205;44.264;19.884;2023-06-22T06:32:44;1254.90;1152.00
55329;DHT22;41205;44.264;19.884;2023-06-22T06:37:40;1255.10;1126.40
55329;DHT22;41205;44.264;19.884;2023-06-22T06:40:08;1305.90;1075.20
55329;DHT22;41205;44.264;19.884;2023-06-22T06:42:36;1280.90;1100.80
55329;DHT22;41205;44.264;19.884;2023-06-22T06:45:04;1305.70;1075.20
55329;DHT22;41205;44.264;19.884;2023-06-22T06:47:30;1255.10;1100.80
55329;DHT22;41205;44.264;19.884;2023-06-22T06:49:56;1254.40;1126.40
55329;DHT22;41205;44.264;19.884;2023-06-22T06:52:21;1204.10;1126.40
55329;DHT22;41205;44.264;19.884;2023-06-22T06:54:47;1228.90;1126.40
55329;DHT22;41205;44.264;19.884;2023-06-22T06:57:13;1228.80;1152.00
55329;DHT22;41205;44.264;19.884;2023-06-22T06:59:39;1178.50;1152.00
55329;DHT22;41205;44.264;19.884;2023-06-22T07:02:05;1126.90;1254.40
55329;DHT22;41205;44.264;19.884;2023-06-22T07:04:30;1152.70;1177.60
55329;DHT22;41205;44.264;19.884;2023-06-22T07:06:58;1152.50;1203.20
55329;DHT22;41205;44.264;19.884;2023-06-22T07:09:24;1152.70;1177.60
55329;DHT22;41205;44.264;19.884;2023-06-22T07:11:49;1152.70;1177.60
55329;DHT22;41205;44.264;19.884;2023-06-22T07:14:15;1127.30;1228.80
55329;DHT22;41205;44.264;19.884;2023-06-22T07:16:41;1101.40;1254.40
55329;DHT22;41205;44.264;19.884;2023-06-22T07:19:07;1152.40;1203.20
55329;DHT22;41205;44.264;19.884;2023-06-22T07:21:33;1126.80;1254.40
55329;DHT22;41205;44.264;19.884;2023-06-22T07:23:58;1152.00;1228.80
55329;DHT22;41205;44.264;19.884;2023-06-22T07:26:24;1152.60;1203.20
55329;DHT22;41205;44.264;19.884;2023-06-22T07:28:50;1177.60;1177.60
55329;DHT22;41205;44.264;19.884;2023-06-22T07:31:16;1152.90;1228.80
55329;DHT22;41205;44.264;19.884;2023-06-22T07:33:41;1178.30;1177.60
55329;DHT22;41205;44.264;19.884;2023-06-22T07:36:07;1203.20;1177.60
55329;DHT22;41205;44.264;19.884;2023-06-22T07:38:34;1203.40;1177.60
55329;DHT22;41205;44.264;19.884;2023-06-22T07:41:00;1152.00;1254.40
55329;DHT22;41205;44.264;19.884;2023-06-22T07:43:26;1177.80;1203.20
55329;DHT22;41205;44.264;19.884;2023-06-22T07:45:52;1152.50;1228.80
55329;DHT22;41205;44.264;19.884;2023-06-22T07:48:20;1152.90;1203.20
55329;DHT22;41205;44.264;19.884;2023-06-22T07:50:46;1178.00;1177.60
55329;DHT22;41205;44.264;19.884;2023-06-22T07:53:12;1177.80;1203.20
55329;DHT22;41205;44.264;19.884;2023-06-22T07:55:38;1177.60;1228.80
55329;DHT22;41205;44.264;19.884;2023-06-22T07:58:03;1178.20;1177.60
55329;DHT22;41205;44.264;19.884;2023-06-22T08:00:29;1178.20;1177.60
55329;DHT22;41205;44.264;19.884;2023-06-22T08:02:55;1178.00;1203.20
55329;DHT22;41205;44.264;19.884;2023-06-22T08:05:21;1178.10;1177.60
55329;DHT22;41205;44.264;19.884;2023-06-22T08:07:47;1178.20;1177.60
55329;DHT22;41205;44.264;19.884;2023-06-22T08:10:13;1152.40;1228.80
55329;DHT22;41205;44.264;19.884;2023-06-22T08:12:40;1126.80;1280.00
55329;DHT22;41205;44.264;19.884;2023-06-22T08:15:06;1101.20;1305.60
55329;DHT22;41205;44.264;19.884;2023-06-22T08:17:33;1049.90;1408.00
55329;DHT22;41205;44.264;19.884;2023-06-22T08:19:59;999.30;1433.60
55329;DHT22;41205;44.264;19.884;2023-06-22T08:22:25;998.80;1484.80
55329;DHT22;41205;44.264;19.884;2023-06-22T08:24:51;998.50;1510.40
55329;DHT22;41205;44.264;19.884;2023-06-22T08:27:16;973.70;1484.80
55329;DHT22;41205;44.264;19.884;2023-06-22T08:29:44;973.00;1510.40
55329;DHT22;41205;44.264;19.884;2023-06-22T08:32:11;947.70;1536.00
55329;DHT22;41205;44.264;19.884;2023-06-22T08:34:37;947.90;1510.40
55329;DHT22;41205;44.264;19.884;2023-06-22T08:37:08;947.40;1536.00
55329;DHT22;41205;44.264;19.884;2023-06-22T08:39:34;947.30;1510.40
55329;DHT22;41205;44.264;19.884;2023-06-22T08:42:00;947.20;1536.00
55329;DHT22;41205;44.264;19.884;2023-06-22T08:44:25;947.20;1536.00
55329;DHT22;41205;44.264;19.884;2023-06-22T08:46:51;922.40;1510.40
55329;DHT22;41205;44.264;19.884;2023-06-22T08:49:17;922.50;1510.40
55329;DHT22;41205;44.264;19.884;2023-06-22T08:51:42;947.50;1510.40
55329;DHT22;41205;44.264;19.884;2023-06-22T08:54:11;947.70;1510.40
55329;DHT22;41205;44.264;19.884;2023-06-22T08:56:36;947.60;1510.40
55329;DHT22;41205;44.264;19.884;2023-06-22T08:59:02;947.60;1484.80
55329;DHT22;41205;44.264;19.884;2023-06-22T09:01:28;922.30;1536.00
55329;DHT22;41205;44.264;19.884;2023-06-22T09:06:21;922.10;1536.00
55329;DHT22;41205;44.264;19.884;2023-06-22T09:08:47;896.90;1561.60
55329;DHT22;41205;44.264;19.884;2023-06-22T09:11:13;921.80;1561.60
55329;DHT22;41205;44.264;19.884;2023-06-22T09:13:39;921.80;1536.00
55329;DHT22;41205;44.264;19.884;2023-06-22T09:16:04;922.30;1561.60
55329;DHT22;41205;44.264;19.884;2023-06-22T09:18:30;922.10;1561.60
55329;DHT22;41205;44.264;19.884;2023-06-22T09:20:56;922.30;1536.00
55329;DHT22;41205;44.264;19.884;2023-06-22T09:23:22;922.00;1536.00
55329;DHT22;41205;44.264;19.884;2023-06-22T09:25:47;896.80;1536.00
55329;DHT22;41205;44.264;19.884;2023-06-22T09:28:14;922.00;1536.00
55329;DHT22;41205;44.264;19.884;2023-06-22T09:30:40;922.00;1510.40
55329;DHT22;41205;44.264;19.884;2023-06-22T09:33:06;922.00;1536.00
55329;DHT22;41205;44.264;19.884;2023-06-22T09:35:31;896.40;1561.60
55329;DHT22;41205;44.264;19.884;2023-06-22T09:37:57;896.30;1561.60
55329;DHT22;41205;44.264;19.884;2023-06-22T09:40:23;921.60;1561.60
55329;DHT22;41205;44.264;19.884;2023-06-22T09:42:49;896.70;1536.00
55329;DHT22;41205;44.264;19.884;2023-06-22T09:45:14;896.90;1510.40
55329;DHT22;41205;44.264;19.884;2023-06-22T09:47:40;921.80;1536.00
55329;DHT22;41205;44.264;19.884;2023-06-22T09:50:07;921.60;1561.60
55329;DHT22;41205;44.264;19.884;2023-06-22T09:52:33;921.60;1536.00
55329;DHT22;41205;44.264;19.884;2023-06-22T09:54:58;896.70;1587.20
55329;DHT22;41205;44.264;19.884;2023-06-22T09:57:24;896.70;1510.40
55329;DHT22;41205;44.264;19.884;2023-06-22T09:59:50;896.40;1561.60
55329;DHT22;41205;44.264;19.884;2023-06-22T10:02:16;896.80;1561.60
55329;DHT22;41205;44.264;19.884;2023-06-22T10:04:42;921.70;1536.00
55329;DHT22;41205;44.264;19.884;2023-06-22T10:07:08;921.70;1536.00
55329;DHT22;41205;44.264;19.884;2023-06-22T10:09:34;921.90;1561.60
55329;DHT22;41205;44.264;19.884;2023-06-22T10:11:59;922.00;1536.00
55329;DHT22;41205;44.264;19.884;2023-06-22T10:14:25;921.80;1536.00
55329;DHT22;41205;44.264;19.884;2023-06-22T10:16:52;896.60;1536.00
55329;DHT22;41205;44.264;19.884;2023-06-22T10:19:18;896.90;1510.40
55329;DHT22;41205;44.264;19.884;2023-06-22T10:21:44;896.60;1510.40
55329;DHT22;41205;44.264;19.884;2023-06-22T10:24:10;896.10;1587.20
55329;DHT22;41205;44.264;19.884;2023-06-22T10:26:36;896.40;1561.60
55329;DHT22;41205;44.264;19.884;2023-06-22T10:29:02;896.20;1561.60
55329;DHT22;41205;44.264;19.884;2023-06-22T10:31:28;896.40;1536.00
55329;DHT22;41205;44.264;19.884;2023-06-22T10:33:55;896.10;1587.20
55329;DHT22;41205;44.264;19.884;2023-06-22T10:36:24;896.30;1587.20
55329;DHT22;41205;44.264;19.884;2023-06-22T10:38:49;896.70;1587.20
55329;DHT22;41205;44.264;19.884;2023-06-22T10:41:15;896.40;1587.20
55329;DHT22;41205;44.264;19.884;2023-06-22T10:43:42;896.70;1561.60
55329;DHT22;41205;44.264;19.884;2023-06-22T10:46:09;896.60;1561.60
55329;DHT22;41205;44.264;19.884;2023-06-22T10:48:34;896.30;1561.60
55329;DHT22;41205;44.264;19.884;2023-06-22T10:51:00;896.30;1536.00
55329;DHT22;41205;44.264;19.884;2023-06-22T10:53:26;896.80;1612.80
55329;DHT22;41205;44.264;19.884;2023-06-22T10:55:51;896.50;1561.60
55329;DHT22;41205;44.264;19.884;2023-06-22T10:58:19;896.40;1561.60
55329;DHT22;41205;44.264;19.884;2023-06-22T11:00:45;896.30;1612.80
55329;DHT22;41205;44.264;19.884;2023-06-22T11:03:11;896.20;1638.40
55329;DHT22;41205;44.264;19.884;2023-06-22T11:05:37;896.00;1638.40
55329;DHT22;41205;44.264;19.884;2023-06-22T11:08:03;896.30;1587.20
55329;DHT22;41205;44.264;19.884;2023-06-22T11:10:28;896.00;1638.40
55329;DHT22;41205;44.264;19.884;2023-06-22T11:12:54;871.20;1664.00
55329;DHT22;41205;44.264;19.884;2023-06-22T11:15:21;896.10;1638.40
55329;DHT22;41205;44.264;19.884;2023-06-22T11:17:47;871.00;1664.00
55329;DHT22;41205;44.264;19.884;2023-06-22T11:20:12;871.20;1664.00
55329;DHT22;41205;44.264;19.884;2023-06-22T11:22:39;871.30;1664.00
55329;DHT22;41205;44.264;19.884;2023-06-22T11:25:05;871.20;1638.40
55329;DHT22;41205;44.264;19.884;2023-06-22T11:27:31;871.30;1664.00
55329;DHT22;41205;44.264;19.884;2023-06-22T11:29:57;871.20;1664.00
55329;DHT22;41205;44.264;19.884;2023-06-22T11:32:23;871.10;1638.40
55329;DHT22;41205;44.264;19.884;2023-06-22T11:34:49;871.10;1689.60
55329;DHT22;41205;44.264;19.884;2023-06-22T11:37:15;871.10;1664.00
55329;DHT22;41205;44.264;19.884;2023-06-22T11:39:41;871.10;1638.40
55329;DHT22;41205;44.264;19.884;2023-06-22T11:42:07;871.30;1612.80
55329;DHT22;41205;44.264;19.884;2023-06-22T11:44:34;871.30;1638.40
55329;DHT22;41205;44.264;19.884;2023-06-22T11:47:00;871.30;1638.40
55329;DHT22;41205;44.264;19.884;2023-06-22T11:49:27;871.20;1664.00
55329;DHT22;41205;44.264;19.884;2023-06-22T11:51:53;871.10;1664.00
55329;DHT22;41205;44.264;19.884;2023-06-22T11:54:18;870.70;1664.00
55329;DHT22;41205;44.264;19.884;2023-06-22T11:56:44;870.90;1689.60
55329;DHT22;41205;44.264;19.884;2023-06-22T11:59:10;870.90;1664.00
55329;DHT22;41205;44.264;19.884;2023-06-22T12:01:35;870.70;1689.60
55329;DHT22;41205;44.264;19.884;2023-06-22T12:04:02;871.10;1689.60
55329;DHT22;41205;44.264;19.884;2023-06-22T12:06:31;871.30;1715.20
55329;DHT22;41205;44.264;19.884;2023-06-22T12:08:57;871.30;1664.00
55329;DHT22;41205;44.264;19.884;2023-06-22T12:11:23;870.90;1664.00
55329;DHT22;41205;44.264;19.884;2023-06-22T12:13:49;870.90;1664.00
55329;DHT22;41205;44.264;19.884;2023-06-22T12:16:14;871.00;1664.00
55329;DHT22;41205;44.264;19.884;2023-06-22T12:18:40;871.20;1638.40
55329;DHT22;41205;44.264;19.884;2023-06-22T12:21:06;871.10;1638.40
55329;DHT22;41205;44.264;19.884;2023-06-22T12:23:31;871.10;1638.40
55329;DHT22;41205;44.264;19.884;2023-06-22T12:25:57;871.30;1664.00
55329;DHT22;41205;44.264;19.884;2023-06-22T12:28:23;871.30;1638.40
55329;DHT22;41205;44.264;19.884;2023-06-22T12:30:49;871.10;1638.40
55329;DHT22;41205;44.264;19.884;2023-06-22T12:33:14;871.30;1638.40
55329;DHT22;41205;44.264;19.884;2023-06-22T12:35:40;896.00;1664.00
55329;DHT22;41205;44.264;19.884;2023-06-22T12:38:06;896.40;1664.00
55329;DHT22;41205;44.264;19.884;2023-06-22T12:40:33;871.10;1664.00
55329;DHT22;41205;44.264;19.884;2023-06-22T12:42:59;871.30;1638.40
55329;DHT22;41205;44.264;19.884;2023-06-22T12:45:25;871.20;1638.40
55329;DHT22;41205;44.264;19.884;2023-06-22T12:47:54;871.20;1612.80
55329;DHT22;41205;44.264;19.884;2023-06-22T12:50:20;871.30;1664.00
55329;DHT22;41205;44.264;19.884;2023-06-22T12:52:45;871.30;1638.40
55329;DHT22;41205;44.264;19.884;2023-06-22T12:55:11;896.00;1612.80
55329;DHT22;41205;44.264;19.884;2023-06-22T12:57:37;871.10;1612.80
55329;DHT22;41205;44.264;19.884;2023-06-22T13:00:03;871.20;1612.80
55329;DHT22;41205;44.264;19.884;2023-06-22T13:02:30;871.10;1612.80
55329;DHT22;41205;44.264;19.884;2023-06-22T13:04:56;871.30;1587.20
55329;DHT22;41205;44.264;19.884;2023-06-22T13:07:22;870.90;1612.80
55329;DHT22;41205;44.264;19.884;2023-06-22T13:09:48;870.70;1638.40
55329;DHT22;41205;44.264;19.884;2023-06-22T13:12:17;870.90;1612.80
55329;DHT22;41205;44.264;19.884;2023-06-22T13:14:42;871.10;1612.80
55329;DHT22;41205;44.264;19.884;2023-06-22T13:17:09;871.30;1612.80
55329;DHT22;41205;44.264;19.884;2023-06-22T13:19:34;871.30;1587.20
55329;DHT22;41205;44.264;19.884;2023-06-22T13:22:00;896.10;1664.00
55329;DHT22;41205;44.264;19.884;2023-06-22T13:24:26;896.30;1612.80
55329;DHT22;41205;44.264;19.884;2023-06-22T13:26:51;896.30;1664.00
55329;DHT22;41205;44.264;19.884;2023-06-22T13:29:17;896.40;1638.40
55329;DHT22;41205;44.264;19.884;2023-06-22T13:31:43;896.10;1612.80
55329;DHT22;41205;44.264;19.884;2023-06-22T13:34:08;896.20;1612.80
55329;DHT22;41205;44.264;19.884;2023-06-22T13:36:34;896.20;1689.60
55329;DHT22;41205;44.264;19.884;2023-06-22T13:39:00;896.10;1638.40
55329;DHT22;41205;44.264;19.884;2023-06-22T13:41:25;896.30;1612.80
55329;DHT22;41205;44.264;19.884;2023-06-22T13:43:51;896.30;1638.40
55329;DHT22;41205;44.264;19.884;2023-06-22T13:46:17;896.30;1664.00
55329;DHT22;41205;44.264;19.884;2023-06-22T13:48:43;896.40;1638.40
55329;DHT22;41205;44.264;19.884;2023-06-22T13:51:08;896.50;1664.00
55329;DHT22;41205;44.264;19.884;2023-06-22T13:53:34;896.50;1638.40
55329;DHT22;41205;44.264;19.884;2023-06-22T13:56:00;896.50;1612.80
55329;DHT22;41205;44.264;19.884;2023-06-22T13:58:25;896.50;1664.00
55329;DHT22;41205;44.264;19.884;2023-06-22T14:00:51;896.50;1612.80
55329;DHT22;41205;44.264;19.884;2023-06-22T14:03:17;896.50;1638.40
55329;DHT22;41205;44.264;19.884;2023-06-22T14:05:43;896.20;1612.80
55329;DHT22;41205;44.264;19.884;2023-06-22T14:08:09;896.30;1612.80
55329;DHT22;41205;44.264;19.884;2023-06-22T14:10:34;896.40;1638.40
55329;DHT22;41205;44.264;19.884;2023-06-22T14:13:00;896.30;1587.20
55329;DHT22;41205;44.264;19.884;2023-06-22T14:15:26;896.10;1587.20
55329;DHT22;41205;44.264;19.884;2023-06-22T14:17:52;896.30;1612.80
55329;DHT22;41205;44.264;19.884;2023-06-22T14:20:18;896.00;1612.80
55329;DHT22;41205;44.264;19.884;2023-06-22T14:22:44;871.20;1612.80
55329;DHT22;41205;44.264;19.884;2023-06-22T14:25:09;871.20;1638.40
55329;DHT22;41205;44.264;19.884;2023-06-22T14:27:35;871.20;1612.80
55329;DHT22;41205;44.264;19.884;2023-06-22T14:30:01;871.30;1612.80
55329;DHT22;41205;44.264;19.884;2023-06-22T14:32:28;871.30;1612.80
55329;DHT22;41205;44.264;19.884;2023-06-22T14:34:55;871.10;1612.80
55329;DHT22;41205;44.264;19.884;2023-06-22T14:37:21;871.10;1638.40
55329;DHT22;41205;44.264;19.884;2023-06-22T14:39:46;871.10;1638.40
55329;DHT22;41205;44.264;19.884;2023-06-22T14:42:12;871.30;1664.00
55329;DHT22;41205;44.264;19.884;2023-06-22T14:44:38;871.30;1664.00
55329;DHT22;41205;44.264;19.884;2023-06-22T14:47:04;870.90;1638.40
55329;DHT22;41205;44.264;19.884;2023-06-22T14:49:29;870.90;1638.40
55329;DHT22;41205;44.264;19.884;2023-06-22T14:51:55;870.90;1664.00
55329;DHT22;41205;44.264;19.884;2023-06-22T14:54:21;870.90;1638.40
55329;DHT22;41205;44.264;19.884;2023-06-22T14:56:48;870.90;1638.40
55329;DHT22;41205;44.264;19.884;2023-06-22T14:59:14;870.70;1664.00
55329;DHT22;41205;44.264;19.884;2023-06-22T15:01:39;870.80;1664.00
55329;DHT22;41205;44.264;19.884;2023-06-22T15:04:05;871.00;1664.00
55329;DHT22;41205;44.264;19.884;2023-06-22T15:06:31;870.80;1664.00
55329;DHT22;41205;44.264;19.884;2023-06-22T15:08:56;870.90;1664.00
55329;DHT22;41205;44.264;19.884;2023-06-22T15:11:22;870.80;1689.60
55329;DHT22;41205;44.264;19.884;2023-06-22T15:13:48;870.90;1664.00